Time;durP1;ratioP1;P1;durP2;ratioP2;P2;SDS_P1;SDS_P2;PMS_P1;PMS_P2;Temp;Humidity;BMP_temperature;BMP_pressure;BME280_temperature;BME280_humidity;BME280_pressure;Samples;Min_cycle;Max_cycle;Signal;HPM_P1;HPM_P2
2023/04/19 00:02:08;;;;;;;10.63;7.47;;;;;;;;;;5031207;28;20045;-80
2023/04/19 00:04:36;;;;;;;10.30;8.27;;;;;;;;;;5031628;28;20059;-80
2023/04/19 00:07:03;;;;;;;11.95;8.75;;;;;;;;;;5052658;28;20136;-80
2023/04/19 00:09:29;;;;;;;9.32;7.85;;;;;;;;;;5050813;28;20055;-81
2023/04/19 00:11:55;;;;;;;8.82;7.32;;;;;;;;;;5052449;28;20041;-80
2023/04/19 00:14:21;;;;;;;11.00;7.68;;;;;;;;;;5049618;28;20041;-80
2023/04/19 00:16:47;;;;;;;10.90;7.70;;;;;;;;;;5036436;28;20094;-80
2023/04/19 00:19:13;;;;;;;10.32;7.55;;;;;;;;;;5050986;28;20041;-80
2023/04/19 00:21:39;;;;;;;8.63;7.47;;;;;;;;;;5047184;28;20492;-80
2023/04/19 00:24:05;;;;;;;9.57;7.38;;;;;;;;;;5029929;28;20053;-81
2023/04/19 00:26:31;;;;;;;10.25;7.93;;;;;;;;;;5033443;28;20067;-81
2023/04/19 00:28:57;;;;;;;10.55;7.75;;;;;;;;;;5032907;28;20119;-80
2023/04/19 00:31:23;;;;;;;10.75;7.57;;;;;;;;;;5048770;28;20178;-80
2023/04/19 00:33:49;;;;;;;9.68;7.57;;;;;;;;;;5054902;28;20055;-81
2023/04/19 00:36:15;;;;;;;9.95;7.78;;;;;;;;;;5054644;28;20048;-81
2023/04/19 00:38:41;;;;;;;8.88;7.30;;;;;;;;;;5051533;28;20045;-81
2023/04/19 00:41:07;;;;;;;9.68;7.93;;;;;;;;;;5033471;28;20045;-81
2023/04/19 00:43:34;;;;;;;8.95;7.60;;;;;;;;;;5051037;28;20052;-81
2023/04/19 00:46:00;;;;;;;9.60;7.43;;;;;;;;;;5050435;28;20055;-80
2023/04/19 00:48:26;;;;;;;10.77;7.65;;;;;;;;;;5047987;28;20049;-81
2023/04/19 00:50:52;;;;;;;10.25;7.75;;;;;;;;;;5054292;28;20396;-81
2023/04/19 00:53:18;;;;;;;11.25;7.93;;;;;;;;;;5031408;28;21316;-80
2023/04/19 00:55:44;;;;;;;10.10;8.10;;;;;;;;;;5050877;28;20487;-79
2023/04/19 00:58:10;;;;;;;9.90;7.82;;;;;;;;;;5049024;28;20052;-79
2023/04/19 01:00:36;;;;;;;10.95;7.90;;;;;;;;;;5051111;28;20076;-80
2023/04/19 01:03:02;;;;;;;10.82;7.80;;;;;;;;;;5034207;28;20052;-80
2023/04/19 01:05:29;;;;;;;10.07;7.95;;;;;;;;;;5049228;28;20179;-79
2023/04/19 01:07:55;;;;;;;10.90;8.32;;;;;;;;;;5062760;28;20119;-80
2023/04/19 01:10:21;;;;;;;10.95;8.60;;;;;;;;;;5051760;28;20037;-80
2023/04/19 01:12:47;;;;;;;9.63;7.55;;;;;;;;;;5031783;28;20460;-81
2023/04/19 01:15:13;;;;;;;11.60;8.32;;;;;;;;;;5027327;28;20052;-81
2023/04/19 01:17:40;;;;;;;10.32;8.15;;;;;;;;;;5036523;28;20409;-81
2023/04/19 01:20:06;;;;;;;10.35;8.30;;;;;;;;;;5030412;28;20045;-80
2023/04/19 01:22:33;;;;;;;8.70;7.50;;;;;;;;;;5052230;28;20079;-80
2023/04/19 01:24:59;;;;;;;12.32;7.97;;;;;;;;;;5030199;28;20044;-79
2023/04/19 01:27:25;;;;;;;11.82;8.00;;;;;;;;;;5048616;28;21803;-80
2023/04/19 01:29:51;;;;;;;9.63;7.63;;;;;;;;;;5030419;28;20049;-80
2023/04/19 01:32:17;;;;;;;9.05;7.55;;;;;;;;;;5032598;28;20044;-80
2023/04/19 01:34:43;;;;;;;10.85;8.20;;;;;;;;;;5049507;28;20099;-80
2023/04/19 01:37:09;;;;;;;10.80;8.48;;;;;;;;;;5046949;28;20071;-80
2023/04/19 01:39:35;;;;;;;10.77;8.45;;;;;;;;;;5050574;28;20114;-80
2023/04/19 01:42:02;;;;;;;10.60;8.00;;;;;;;;;;5049674;28;20047;-80
2023/04/19 01:44:28;;;;;;;9.50;7.93;;;;;;;;;;5031080;28;20072;-80
2023/04/19 01:46:54;;;;;;;11.02;8.50;;;;;;;;;;5033760;28;20519;-81
2023/04/19 01:49:21;;;;;;;12.75;8.98;;;;;;;;;;5048199;28;20041;-80
2023/04/19 01:51:47;;;;;;;9.85;8.85;;;;;;;;;;5053172;28;20048;-80
2023/04/19 01:54:13;;;;;;;9.77;8.20;;;;;;;;;;5049443;28;20044;-80
2023/04/19 01:56:39;;;;;;;10.10;8.02;;;;;;;;;;5037212;28;20525;-80
2023/04/19 01:59:13;;;;;;;11.23;8.68;;;;;;;;;;5029472;28;20056;-80
2023/04/19 02:01:39;;;;;;;11.63;8.02;;;;;;;;;;5037020;28;20048;-80
2023/04/19 02:04:06;;;;;;;11.30;8.15;;;;;;;;;;5040576;28;20178;-80
2023/04/19 02:06:32;;;;;;;10.63;8.55;;;;;;;;;;5041103;28;20045;-80
2023/04/19 02:08:58;;;;;;;11.68;8.60;;;;;;;;;;5041031;28;20037;-80
2023/04/19 02:11:24;;;;;;;12.05;9.60;;;;;;;;;;5057786;28;20051;-81
2023/04/19 02:13:50;;;;;;;10.95;8.90;;;;;;;;;;5057334;28;20036;-81
2023/04/19 02:16:16;;;;;;;12.75;9.02;;;;;;;;;;5058574;28;20131;-81
2023/04/19 02:18:42;;;;;;;11.65;9.18;;;;;;;;;;5036067;28;20033;-81
2023/04/19 02:21:09;;;;;;;12.95;9.65;;;;;;;;;;5049651;28;20558;-81
2023/04/19 02:23:35;;;;;;;13.98;10.35;;;;;;;;;;5053892;28;20036;-81
2023/04/19 02:26:04;;;;;;;14.77;9.70;;;;;;;;;;5045271;28;20044;-80
2023/04/19 02:28:31;;;;;;;13.90;10.18;;;;;;;;;;5036570;28;20106;-81
2023/04/19 02:30:57;;;;;;;16.27;10.50;;;;;;;;;;5037903;28;20078;-80
2023/04/19 02:33:23;;;;;;;13.45;10.77;;;;;;;;;;5061565;28;20055;-80
2023/04/19 02:35:49;;;;;;;13.55;9.82;;;;;;;;;;5059063;28;20400;-81
2023/04/19 02:38:16;;;;;;;17.75;11.23;;;;;;;;;;5059180;28;20041;-81
2023/04/19 02:40:42;;;;;;;13.60;10.10;;;;;;;;;;5036811;28;21458;-80
2023/04/19 02:43:08;;;;;;;13.75;10.32;;;;;;;;;;5039053;28;20045;-80
2023/04/19 02:45:34;;;;;;;12.60;10.05;;;;;;;;;;5038944;28;20098;-80
2023/04/19 02:48:00;;;;;;;14.77;10.38;;;;;;;;;;5054727;28;20078;-80
2023/04/19 02:50:26;;;;;;;13.95;11.02;;;;;;;;;;5040397;28;20059;-80
2023/04/19 02:52:52;;;;;;;13.52;11.02;;;;;;;;;;5053944;28;20049;-80
2023/04/19 02:55:18;;;;;;;15.10;11.88;;;;;;;;;;5054113;28;20078;-81
2023/04/19 02:57:45;;;;;;;14.88;11.27;;;;;;;;;;5053087;28;20048;-80
2023/04/19 03:00:11;;;;;;;12.32;10.73;;;;;;;;;;5051008;28;20048;-80
2023/04/19 03:02:38;;;;;;;15.40;11.18;;;;;;;;;;5033025;28;20440;-80
2023/04/19 03:05:05;;;;;;;14.68;11.85;;;;;;;;;;5048423;28;20076;-79
2023/04/19 03:07:31;;;;;;;17.90;12.00;;;;;;;;;;5030755;28;20060;-80
2023/04/19 03:09:57;;;;;;;15.50;12.00;;;;;;;;;;5039696;28;20496;-79
2023/04/19 03:12:23;;;;;;;15.55;11.07;;;;;;;;;;5052587;28;20043;-79
2023/04/19 03:14:49;;;;;;;15.13;12.13;;;;;;;;;;5051642;28;20041;-81
2023/04/19 03:17:15;;;;;;;15.93;12.38;;;;;;;;;;5033327;28;20127;-81
2023/04/19 03:19:41;;;;;;;14.75;11.70;;;;;;;;;;5052226;28;20403;-79
2023/04/19 03:22:07;;;;;;;16.10;12.43;;;;;;;;;;5049464;28;20052;-80
2023/04/19 03:24:33;;;;;;;13.98;10.88;;;;;;;;;;5052233;28;20065;-80
2023/04/19 03:27:00;;;;;;;18.00;12.93;;;;;;;;;;5036037;28;20043;-80
2023/04/19 03:29:26;;;;;;;16.85;11.73;;;;;;;;;;5051594;28;20135;-80
2023/04/19 03:31:52;;;;;;;15.10;11.02;;;;;;;;;;5052636;28;20086;-80
2023/04/19 03:34:18;;;;;;;18.27;12.40;;;;;;;;;;5048420;28;20048;-80
2023/04/19 03:36:44;;;;;;;15.50;11.18;;;;;;;;;;5049455;28;20056;-80
2023/04/19 03:39:10;;;;;;;15.00;11.38;;;;;;;;;;5031478;28;20057;-80
2023/04/19 03:41:36;;;;;;;13.77;10.93;;;;;;;;;;5034900;28;20398;-80
2023/04/19 03:44:02;;;;;;;16.33;11.77;;;;;;;;;;5035460;28;20056;-80
2023/04/19 03:46:30;;;;;;;15.88;10.80;;;;;;;;;;5030071;28;20076;-80
2023/04/19 03:48:57;;;;;;;14.93;12.27;;;;;;;;;;5056241;28;20041;-80
2023/04/19 03:51:23;;;;;;;17.48;11.10;;;;;;;;;;5061192;28;20126;-81
2023/04/19 03:53:49;;;;;;;15.35;11.85;;;;;;;;;;5063401;28;20488;-81
2023/04/19 03:56:15;;;;;;;14.38;11.57;;;;;;;;;;5052872;28;20095;-80
2023/04/19 03:58:41;;;;;;;13.73;10.40;;;;;;;;;;5056573;28;20097;-80
2023/04/19 04:01:07;;;;;;;15.20;11.20;;;;;;;;;;5035553;28;20052;-80
2023/04/19 04:03:34;;;;;;;13.82;11.18;;;;;;;;;;5041169;28;20041;-80
2023/04/19 04:06:00;;;;;;;13.70;10.70;;;;;;;;;;5040975;28;20118;-80
2023/04/19 04:08:26;;;;;;;13.80;10.35;;;;;;;;;;5056581;28;20052;-79
2023/04/19 04:10:54;;;;;;;15.60;10.15;;;;;;;;;;5058079;28;20118;-79
2023/04/19 04:13:20;;;;;;;15.32;10.32;;;;;;;;;;5059191;28;20087;-79
2023/04/19 04:15:46;;;;;;;12.60;10.57;;;;;;;;;;5053387;28;20041;-79
2023/04/19 04:18:12;;;;;;;12.38;9.77;;;;;;;;;;5041027;28;20055;-79
2023/04/19 04:20:38;;;;;;;13.43;10.65;;;;;;;;;;5034187;28;20044;-80
2023/04/19 04:23:06;;;;;;;12.82;9.20;;;;;;;;;;5049672;28;20083;-79
2023/04/19 04:25:36;;;;;;;12.10;9.52;;;;;;;;;;5057473;28;20500;-80
2023/04/19 04:28:05;;;;;;;14.18;8.98;;;;;;;;;;5038613;28;20049;-80
2023/04/19 04:30:33;;;;;;;12.65;10.65;;;;;;;;;;5058553;28;20491;-80
2023/04/19 04:32:59;;;;;;;13.18;9.60;;;;;;;;;;5059888;28;20044;-80
2023/04/19 04:35:26;;;;;;;12.18;10.02;;;;;;;;;;5035982;28;20082;-80
2023/04/19 04:37:55;;;;;;;13.80;9.90;;;;;;;;;;5053673;28;20044;-80
2023/04/19 04:40:21;;;;;;;15.10;9.52;;;;;;;;;;5056450;28;20037;-80
2023/04/19 04:42:48;;;;;;;12.75;9.68;;;;;;;;;;5060651;28;20045;-80
2023/04/19 04:45:17;;;;;;;12.95;9.93;;;;;;;;;;5051275;28;20095;-80
2023/04/19 04:47:45;;;;;;;11.82;9.18;;;;;;;;;;5051621;28;20331;-80
2023/04/19 04:50:11;;;;;;;12.98;9.82;;;;;;;;;;5042860;28;20059;-79
2023/04/19 04:52:37;;;;;;;14.82;10.40;;;;;;;;;;5037001;28;20048;-80
2023/04/19 04:55:03;;;;;;;13.57;9.90;;;;;;;;;;5063322;28;20049;-80
2023/04/19 04:57:32;;;;;;;13.20;9.90;;;;;;;;;;5056059;28;20049;-80
2023/04/19 04:59:58;;;;;;;14.50;10.10;;;;;;;;;;5037037;28;20559;-79
2023/04/19 05:02:24;;;;;;;11.80;9.80;;;;;;;;;;5057139;28;20128;-80
2023/04/19 05:04:50;;;;;;;11.82;9.00;;;;;;;;;;5057045;28;20072;-80
2023/04/19 05:07:16;;;;;;;11.13;8.95;;;;;;;;;;5036597;28;20489;-80
2023/04/19 05:09:42;;;;;;;12.40;8.95;;;;;;;;;;5067282;28;20044;-80
2023/04/19 05:12:08;;;;;;;11.52;8.88;;;;;;;;;;5040156;28;20392;-80
2023/04/19 05:14:34;;;;;;;18.08;11.18;;;;;;;;;;5058565;28;20081;-80
2023/04/19 05:17:00;;;;;;;13.95;9.45;;;;;;;;;;5061586;28;20040;-80
2023/04/19 05:19:26;;;;;;;11.27;8.70;;;;;;;;;;5058996;28;20044;-80
2023/04/19 05:21:52;;;;;;;12.35;8.95;;;;;;;;;;5051380;28;20064;-80
2023/04/19 05:24:18;;;;;;;11.98;8.38;;;;;;;;;;5034114;28;20076;-80
2023/04/19 05:26:44;;;;;;;10.57;8.25;;;;;;;;;;5066410;28;20113;-80
2023/04/19 05:29:10;;;;;;;12.45;8.75;;;;;;;;;;5038118;28;20465;-80
2023/04/19 05:31:36;;;;;;;12.23;8.70;;;;;;;;;;5057086;28;20101;-81
2023/04/19 05:34:02;;;;;;;11.52;8.52;;;;;;;;;;5055608;28;20093;-80
2023/04/19 05:36:28;;;;;;;10.00;7.93;;;;;;;;;;5037360;28;20041;-80
2023/04/19 05:38:54;;;;;;;12.50;8.68;;;;;;;;;;5039016;28;20052;-80
2023/04/19 05:41:20;;;;;;;10.95;8.00;;;;;;;;;;5060851;28;20044;-80
2023/04/19 05:43:46;;;;;;;11.45;8.25;;;;;;;;;;5060102;28;20044;-80
2023/04/19 05:46:12;;;;;;;12.50;8.57;;;;;;;;;;5036287;28;20366;-80
2023/04/19 05:48:38;;;;;;;10.30;7.28;;;;;;;;;;5042884;28;20039;-80
2023/04/19 05:51:05;;;;;;;9.55;7.80;;;;;;;;;;5056414;28;20058;-80
2023/04/19 05:53:31;;;;;;;10.43;7.95;;;;;;;;;;5060033;28;20045;-80
2023/04/19 05:55:57;;;;;;;9.93;7.43;;;;;;;;;;5059266;28;20119;-80
2023/04/19 05:58:23;;;;;;;11.00;7.70;;;;;;;;;;5056004;28;20076;-80
2023/04/19 06:00:49;;;;;;;11.10;7.32;;;;;;;;;;5056769;28;20080;-81
2023/04/19 06:03:15;;;;;;;10.52;7.05;;;;;;;;;;5059199;28;20086;-80
2023/04/19 06:05:42;;;;;;;9.82;7.15;;;;;;;;;;5043769;28;20052;-80
2023/04/19 06:08:08;;;;;;;9.65;7.03;;;;;;;;;;5030507;28;20465;-81
2023/04/19 06:10:34;;;;;;;8.73;6.72;;;;;;;;;;5067362;28;20047;-80
2023/04/19 06:13:00;;;;;;;10.77;6.70;;;;;;;;;;5058176;28;20079;-80
2023/04/19 06:15:26;;;;;;;10.05;6.32;;;;;;;;;;5065208;28;20064;-80
2023/04/19 06:17:52;;;;;;;8.40;5.80;;;;;;;;;;5042813;28;20091;-80
2023/04/19 06:20:18;;;;;;;10.63;6.28;;;;;;;;;;5069739;28;20052;-80
2023/04/19 06:22:45;;;;;;;7.70;5.53;;;;;;;;;;5060529;28;20485;-80
2023/04/19 06:25:11;;;;;;;7.88;6.10;;;;;;;;;;5038556;28;20741;-80
2023/04/19 06:27:37;;;;;;;7.80;5.25;;;;;;;;;;5056318;28;20131;-80
2023/04/19 06:30:03;;;;;;;7.65;5.30;;;;;;;;;;5060660;28;20040;-80
2023/04/19 06:32:29;;;;;;;6.45;4.78;;;;;;;;;;5037289;28;20052;-80
2023/04/19 06:34:55;;;;;;;7.93;5.10;;;;;;;;;;5036954;28;20540;-80
2023/04/19 06:37:21;;;;;;;5.43;4.20;;;;;;;;;;5056854;28;20132;-80
2023/04/19 06:39:48;;;;;;;5.88;4.45;;;;;;;;;;5066099;28;20135;-80
2023/04/19 06:42:14;;;;;;;8.75;4.82;;;;;;;;;;5055451;28;20049;-79
2023/04/19 06:44:40;;;;;;;8.43;5.07;;;;;;;;;;5062757;28;20385;-81
2023/04/19 06:47:06;;;;;;;5.95;4.70;;;;;;;;;;5048544;28;20183;-80
2023/04/19 06:49:32;;;;;;;8.20;5.15;;;;;;;;;;5038994;28;20447;-80
2023/04/19 06:51:59;;;;;;;10.30;5.47;;;;;;;;;;5046578;28;20049;-80
2023/04/19 06:54:25;;;;;;;7.93;4.60;;;;;;;;;;5038534;28;20084;-80
2023/04/19 06:56:51;;;;;;;6.30;4.82;;;;;;;;;;5030404;28;20084;-82
2023/04/19 06:59:18;;;;;;;7.22;4.55;;;;;;;;;;5040328;28;20053;-81
2023/04/19 07:01:45;;;;;;;6.85;4.43;;;;;;;;;;5039043;28;20060;-81
2023/04/19 07:04:11;;;;;;;7.30;4.70;;;;;;;;;;5026327;28;20041;-81
2023/04/19 07:06:38;;;;;;;8.90;4.35;;;;;;;;;;5043779;28;20037;-80
2023/04/19 07:09:05;;;;;;;5.93;4.13;;;;;;;;;;5048144;28;20041;-81
2023/04/19 07:11:31;;;;;;;4.65;4.13;;;;;;;;;;5051540;28;20045;-80
2023/04/19 07:13:59;;;;;;;5.70;4.60;;;;;;;;;;5030519;28;20073;-80
2023/04/19 07:16:25;;;;;;;6.97;4.35;;;;;;;;;;5032658;28;20060;-80
2023/04/19 07:18:52;;;;;;;6.70;4.60;;;;;;;;;;5035234;28;20049;-81
2023/04/19 07:21:18;;;;;;;6.25;4.50;;;;;;;;;;5044176;28;20049;-80
2023/04/19 07:23:44;;;;;;;4.88;4.03;;;;;;;;;;5034187;28;20057;-80
2023/04/19 07:26:10;;;;;;;6.35;4.28;;;;;;;;;;5034668;28;20037;-80
2023/04/19 07:28:36;;;;;;;7.35;4.45;;;;;;;;;;5015948;28;20049;-80
2023/04/19 07:31:02;;;;;;;7.60;4.22;;;;;;;;;;5039980;28;20067;-79
2023/04/19 07:33:28;;;;;;;7.13;4.10;;;;;;;;;;5038993;28;20041;-81
2023/04/19 07:35:55;;;;;;;4.97;4.03;;;;;;;;;;5034788;28;20056;-82
2023/04/19 07:38:21;;;;;;;7.22;3.80;;;;;;;;;;5049763;28;20364;-81
2023/04/19 07:40:47;;;;;;;5.75;4.15;;;;;;;;;;5020087;28;20077;-81
2023/04/19 07:43:13;;;;;;;5.45;3.97;;;;;;;;;;5034744;28;20048;-81
2023/04/19 07:45:39;;;;;;;6.20;4.13;;;;;;;;;;5023558;28;20052;-82
2023/04/19 07:48:05;;;;;;;5.25;4.00;;;;;;;;;;5026964;28;20041;-83
2023/04/19 07:50:31;;;;;;;5.03;4.00;;;;;;;;;;5022020;28;20493;-81
2023/04/19 07:52:57;;;;;;;6.97;3.85;;;;;;;;;;5016615;28;20055;-82
2023/04/19 07:55:23;;;;;;;5.53;4.18;;;;;;;;;;5040799;28;20128;-83
2023/04/19 07:57:49;;;;;;;6.13;3.67;;;;;;;;;;5044564;28;20136;-82
2023/04/19 08:00:16;;;;;;;5.00;4.05;;;;;;;;;;5057023;28;20808;-82
2023/04/19 08:02:43;;;;;;;5.55;3.90;;;;;;;;;;5061388;28;20045;-82
2023/04/19 08:05:09;;;;;;;4.07;3.25;;;;;;;;;;5039362;28;20100;-77
2023/04/19 08:07:36;;;;;;;5.25;3.90;;;;;;;;;;5061898;28;20048;-82
2023/04/19 08:10:02;;;;;;;5.55;3.55;;;;;;;;;;5059959;28;20430;-82
2023/04/19 08:12:28;;;;;;;3.38;3.08;;;;;;;;;;5061619;28;20071;-82
2023/04/19 08:14:54;;;;;;;3.65;3.33;;;;;;;;;;5047914;28;20068;-82
2023/04/19 08:17:22;;;;;;;3.75;3.10;;;;;;;;;;5045165;28;20037;-82
2023/04/19 08:19:49;;;;;;;3.75;3.33;;;;;;;;;;5038036;28;20052;-82
2023/04/19 08:22:16;;;;;;;4.18;3.08;;;;;;;;;;5063558;28;20040;-83
2023/04/19 08:24:43;;;;;;;4.35;3.60;;;;;;;;;;5036903;28;20044;-84
2023/04/19 08:27:09;;;;;;;4.47;3.20;;;;;;;;;;5033216;28;20128;-83
2023/04/19 08:29:37;;;;;;;3.15;2.85;;;;;;;;;;5058917;28;20504;-82
2023/04/19 08:32:03;;;;;;;2.97;2.70;;;;;;;;;;5052233;28;20056;-82
2023/04/19 08:34:30;;;;;;;3.70;3.30;;;;;;;;;;5052870;28;20045;-82
2023/04/19 08:36:56;;;;;;;3.55;2.55;;;;;;;;;;5035531;28;20044;-83
2023/04/19 08:39:22;;;;;;;5.70;3.13;;;;;;;;;;5043151;28;20044;-83
2023/04/19 08:41:49;;;;;;;3.47;2.60;;;;;;;;;;5041023;28;20135;-83
2023/04/19 08:44:15;;;;;;;4.45;2.85;;;;;;;;;;5053097;28;20453;-83
2023/04/19 08:46:41;;;;;;;5.18;3.13;;;;;;;;;;5038365;28;20072;-84
2023/04/19 08:49:08;;;;;;;3.53;2.97;;;;;;;;;;5052176;28;20116;-83
2023/04/19 08:51:35;;;;;;;4.55;2.80;;;;;;;;;;5033885;28;20045;-84
2023/04/19 08:54:04;;;;;;;5.38;3.08;;;;;;;;;;5051643;28;20091;-84
2023/04/19 08:56:30;;;;;;;3.88;3.30;;;;;;;;;;5028510;28;20480;-83
2023/04/19 08:58:56;;;;;;;3.35;3.05;;;;;;;;;;5033856;28;20049;-83
2023/04/19 09:01:22;;;;;;;4.30;3.60;;;;;;;;;;5034342;28;20120;-83
2023/04/19 09:03:49;;;;;;;5.57;3.28;;;;;;;;;;5044455;28;20451;-83
2023/04/19 09:06:15;;;;;;;4.57;3.45;;;;;;;;;;5028701;28;20049;-84
2023/04/19 09:08:41;;;;;;;5.60;3.58;;;;;;;;;;5016262;28;20397;-83
2023/04/19 09:11:08;;;;;;;3.55;3.25;;;;;;;;;;5049887;28;20397;-84
2023/04/19 09:13:37;;;;;;;7.28;3.35;;;;;;;;;;5032964;28;20052;-84
2023/04/19 09:16:04;;;;;;;3.95;3.22;;;;;;;;;;5022626;28;20040;-84
2023/04/19 09:18:30;;;;;;;4.75;3.28;;;;;;;;;;5031285;28;20175;-82
2023/04/19 09:20:56;;;;;;;5.60;3.38;;;;;;;;;;5024753;28;20136;-83
2023/04/19 09:23:26;;;;;;;5.93;3.47;;;;;;;;;;5015232;28;20045;-84
2023/04/19 09:25:53;;;;;;;6.30;3.20;;;;;;;;;;5028613;28;20087;-83
2023/04/19 09:28:20;;;;;;;4.30;3.00;;;;;;;;;;5025037;28;20044;-84
2023/04/19 09:30:46;;;;;;;4.70;2.95;;;;;;;;;;5036811;28;20529;-84
2023/04/19 09:33:13;;;;;;;4.45;3.25;;;;;;;;;;5033367;28;20048;-84
2023/04/19 09:35:48;;;;;;;3.45;2.83;;;;;;;;;;5011454;28;20481;-83
2023/04/19 09:38:15;;;;;;;5.03;3.13;;;;;;;;;;5029121;28;20057;-84
2023/04/19 09:40:41;;;;;;;5.40;3.03;;;;;;;;;;5013142;28;20498;-84
2023/04/19 09:43:08;;;;;;;3.70;2.50;;;;;;;;;;5012863;28;20038;-84
2023/04/19 09:45:43;;;;;;;3.70;3.00;;;;;;;;;;5036887;28;20099;-82
2023/04/19 09:48:10;;;;;;;3.42;3.13;;;;;;;;;;5015469;28;20041;-84
2023/04/19 09:50:37;;;;;;;3.88;3.17;;;;;;;;;;5037356;28;20046;-84
2023/04/19 09:53:03;;;;;;;3.08;2.88;;;;;;;;;;5020354;28;20045;-84
2023/04/19 09:55:30;;;;;;;4.25;3.40;;;;;;;;;;5032093;28;20053;-83
2023/04/19 09:57:56;;;;;;;5.88;3.88;;;;;;;;;;5063750;28;20401;-84
2023/04/19 10:00:22;;;;;;;4.70;3.10;;;;;;;;;;5035135;28;20052;-85
2023/04/19 10:02:54;;;;;;;3.88;3.03;;;;;;;;;;5056763;28;20123;-84
2023/04/19 10:05:21;;;;;;;10.90;3.50;;;;;;;;;;5038306;28;20144;-85
2023/04/19 10:07:48;;;;;;;4.43;3.10;;;;;;;;;;5054796;28;20241;-84
2023/04/19 10:10:16;;;;;;;4.45;3.00;;;;;;;;;;5052875;28;20067;-84
2023/04/19 10:12:45;;;;;;;5.22;2.65;;;;;;;;;;5042884;28;20384;-84
2023/04/19 10:15:13;;;;;;;3.30;3.00;;;;;;;;;;5036480;28;20075;-85
2023/04/19 10:17:42;;;;;;;4.10;3.00;;;;;;;;;;5060081;28;20480;-85
2023/04/19 10:20:10;;;;;;;3.53;2.90;;;;;;;;;;5053204;28;20036;-84
2023/04/19 10:22:40;;;;;;;3.58;2.80;;;;;;;;;;5032246;28;20045;-84
2023/04/19 10:25:14;;;;;;;5.20;3.40;;;;;;;;;;5054035;28;20049;-83
2023/04/19 10:27:44;;;;;;;3.75;3.15;;;;;;;;;;5034711;28;20485;-83
2023/04/19 10:30:21;;;;;;;4.53;3.67;;;;;;;;;;5027559;28;20080;-82
2023/04/19 10:32:57;;;;;;;6.80;3.88;;;;;;;;;;5053054;28;20514;-81
2023/04/19 10:35:24;;;;;;;3.58;3.13;;;;;;;;;;5058356;28;20511;-82
2023/04/19 10:38:04;;;;;;;5.47;3.95;;;;;;;;;;5052637;28;20033;-80
2023/04/19 10:40:54;;;;;;;5.90;3.50;;;;;;;;;;5068833;28;20048;-83
2023/04/19 10:43:21;;;;;;;4.00;3.42;;;;;;;;;;5040539;28;20174;-84
2023/04/19 10:45:47;;;;;;;5.40;3.60;;;;;;;;;;5065514;28;20036;-85
2023/04/19 10:48:29;;;;;;;4.38;3.53;;;;;;;;;;5041826;28;20501;-84
2023/04/19 10:51:10;;;;;;;6.10;3.63;;;;;;;;;;5053892;28;20056;-84
2023/04/19 10:53:43;;;;;;;5.38;3.75;;;;;;;;;;5050410;28;20550;-84
2023/04/19 10:56:09;;;;;;;4.43;3.20;;;;;;;;;;5031244;28;20045;-85
2023/04/19 10:58:54;;;;;;;7.43;4.05;;;;;;;;;;5048752;28;20075;-85
2023/04/19 11:01:38;;;;;;;5.45;3.97;;;;;;;;;;5025023;28;20111;-76
2023/04/19 11:04:05;;;;;;;5.22;3.38;;;;;;;;;;5026055;28;20067;-83
2023/04/19 11:06:32;;;;;;;4.57;3.53;;;;;;;;;;5032972;28;20498;-82
2023/04/19 11:08:59;;;;;;;6.38;3.65;;;;;;;;;;5030151;28;20147;-83
2023/04/19 11:11:26;;;;;;;6.40;3.58;;;;;;;;;;5035059;28;20531;-84
2023/04/19 11:13:55;;;;;;;4.35;3.42;;;;;;;;;;5036369;28;20041;-83
2023/04/19 11:16:21;;;;;;;4.82;3.50;;;;;;;;;;5041488;28;20056;-84
2023/04/19 11:18:47;;;;;;;5.45;3.00;;;;;;;;;;5051334;28;20045;-84
2023/04/19 11:21:16;;;;;;;4.85;3.42;;;;;;;;;;5026293;28;20124;-80
2023/04/19 11:23:42;;;;;;;5.53;3.10;;;;;;;;;;5032940;28;20532;-82
2023/04/19 11:26:12;;;;;;;3.45;2.75;;;;;;;;;;5023130;28;20519;-82
2023/04/19 11:28:38;;;;;;;5.45;3.20;;;;;;;;;;5035652;28;20059;-81
2023/04/19 11:31:05;;;;;;;4.97;2.60;;;;;;;;;;5042987;28;20052;-84
2023/04/19 11:33:34;;;;;;;4.22;2.70;;;;;;;;;;5057484;28;20040;-84
2023/04/19 11:36:00;;;;;;;3.70;2.83;;;;;;;;;;5043145;28;20065;-84
2023/04/19 11:38:27;;;;;;;5.43;2.63;;;;;;;;;;5023143;28;20053;-83
2023/04/19 11:41:02;;;;;;;4.97;2.75;;;;;;;;;;5015487;28;20157;-84
2023/04/19 11:43:32;;;;;;;4.57;2.75;;;;;;;;;;5040163;28;20040;-83
2023/04/19 11:46:04;;;;;;;5.63;3.17;;;;;;;;;;5042542;28;20151;-84
2023/04/19 11:48:31;;;;;;;6.75;3.08;;;;;;;;;;5041063;28;20048;-83
2023/04/19 11:50:58;;;;;;;5.45;3.40;;;;;;;;;;5048337;28;20056;-82
2023/04/19 11:53:25;;;;;;;3.50;2.80;;;;;;;;;;5032527;28;20134;-83
2023/04/19 11:55:52;;;;;;;3.60;2.88;;;;;;;;;;5046456;28;20040;-85
2023/04/19 11:58:31;;;;;;;5.22;2.80;;;;;;;;;;5045217;28;20445;-84
2023/04/19 12:01:07;;;;;;;5.60;3.25;;;;;;;;;;5069222;28;20044;-82
2023/04/19 12:03:50;;;;;;;3.65;3.00;;;;;;;;;;5037716;28;20088;-83
2023/04/19 12:06:24;;;;;;;5.00;2.80;;;;;;;;;;5076118;28;20049;-84
2023/04/19 12:08:51;;;;;;;6.70;2.90;;;;;;;;;;5040980;28;20079;-83
2023/04/19 12:11:18;;;;;;;5.10;3.20;;;;;;;;;;5052282;28;20052;-84
2023/04/19 12:13:44;;;;;;;5.70;3.35;;;;;;;;;;5059286;28;20064;-84
2023/04/19 12:16:11;;;;;;;2.97;2.65;;;;;;;;;;5057071;28;20488;-83
2023/04/19 12:18:50;;;;;;;4.93;2.85;;;;;;;;;;5053415;28;20120;-84
2023/04/19 12:21:31;;;;;;;2.97;2.70;;;;;;;;;;5037551;28;20041;-83
2023/04/19 12:23:58;;;;;;;5.97;2.63;;;;;;;;;;5059968;28;20051;-84
2023/04/19 12:26:24;;;;;;;5.68;2.80;;;;;;;;;;5053487;28;20072;-84
2023/04/19 12:28:50;;;;;;;5.65;2.80;;;;;;;;;;5055294;28;20033;-84
2023/04/19 12:31:16;;;;;;;4.95;2.70;;;;;;;;;;5054061;28;20049;-84
2023/04/19 12:33:42;;;;;;;5.60;2.70;;;;;;;;;;5061687;28;20162;-84
2023/04/19 12:36:08;;;;;;;3.10;2.75;;;;;;;;;;5055146;28;20705;-84
2023/04/19 12:38:34;;;;;;;4.65;2.80;;;;;;;;;;5037115;28;20041;-84
2023/04/19 12:41:00;;;;;;;4.55;2.35;;;;;;;;;;5070465;28;20048;-84
2023/04/19 12:43:28;;;;;;;8.68;3.00;;;;;;;;;;5060339;28;20090;-85
2023/04/19 12:45:55;;;;;;;5.85;3.10;;;;;;;;;;5054880;28;20045;-83
2023/04/19 12:48:21;;;;;;;7.38;3.40;;;;;;;;;;5043481;28;20124;-83
2023/04/19 12:50:47;;;;;;;3.13;2.83;;;;;;;;;;5053115;28;20052;-84
2023/04/19 12:53:13;;;;;;;5.35;3.22;;;;;;;;;;5037368;28;20048;-84
2023/04/19 12:55:39;;;;;;;6.88;3.35;;;;;;;;;;5040073;28;20045;-84
2023/04/19 12:58:05;;;;;;;4.75;3.05;;;;;;;;;;5053327;28;20059;-83
2023/04/19 13:00:31;;;;;;;6.95;2.97;;;;;;;;;;5046111;28;20056;-84
2023/04/19 13:02:57;;;;;;;6.85;3.17;;;;;;;;;;5060136;28;20086;-84
2023/04/19 13:05:23;;;;;;;5.72;3.80;;;;;;;;;;5034438;28;20443;-84
2023/04/19 13:07:49;;;;;;;5.18;3.50;;;;;;;;;;5051695;28;20046;-84
2023/04/19 13:10:15;;;;;;;4.45;3.45;;;;;;;;;;5056057;28;20071;-84
2023/04/19 13:12:42;;;;;;;7.53;3.40;;;;;;;;;;5056520;28;20084;-84
2023/04/19 13:15:08;;;;;;;5.95;3.58;;;;;;;;;;5036906;28;20049;-85
2023/04/19 13:17:36;;;;;;;6.60;3.65;;;;;;;;;;5058402;28;20131;-84
2023/04/19 13:20:05;;;;;;;6.45;3.65;;;;;;;;;;5055080;28;20170;-84
2023/04/19 13:22:31;;;;;;;6.75;4.15;;;;;;;;;;5035630;28;20745;-84
2023/04/19 13:24:57;;;;;;;6.68;3.42;;;;;;;;;;5029369;28;20135;-84
2023/04/19 13:27:23;;;;;;;8.05;3.72;;;;;;;;;;5032814;28;22245;-85
2023/04/19 13:29:49;;;;;;;9.95;4.15;;;;;;;;;;5059522;28;20044;-84
2023/04/19 13:32:15;;;;;;;8.57;4.20;;;;;;;;;;5038082;28;21156;-85
2023/04/19 13:34:41;;;;;;;4.00;3.58;;;;;;;;;;5031784;28;20130;-85
2023/04/19 13:37:08;;;;;;;10.23;4.40;;;;;;;;;;5056780;28;20504;-84
2023/04/19 13:39:34;;;;;;;4.10;3.70;;;;;;;;;;5032616;28;20053;-84
2023/04/19 13:42:00;;;;;;;4.90;4.03;;;;;;;;;;5053618;28;20041;-84
2023/04/19 13:44:27;;;;;;;5.43;3.70;;;;;;;;;;5052456;28;20049;-85
2023/04/19 13:46:53;;;;;;;6.43;4.15;;;;;;;;;;5048520;28;20047;-85
2023/04/19 13:49:19;;;;;;;8.32;3.85;;;;;;;;;;5054022;28;20496;-85
2023/04/19 13:51:45;;;;;;;5.40;4.25;;;;;;;;;;5072102;28;20124;-86
2023/04/19 13:54:11;;;;;;;4.70;4.10;;;;;;;;;;5062313;28;20037;-86
2023/04/19 13:56:37;;;;;;;5.55;4.20;;;;;;;;;;5032840;28;20076;-86
2023/04/19 13:59:03;;;;;;;7.88;4.28;;;;;;;;;;5050666;28;20419;-85
2023/04/19 14:01:29;;;;;;;5.20;4.40;;;;;;;;;;5039560;28;20124;-85
2023/04/19 14:03:55;;;;;;;6.57;4.20;;;;;;;;;;5065405;28;20048;-86
2023/04/19 14:06:21;;;;;;;6.45;4.65;;;;;;;;;;5038402;28;20067;-83
2023/04/19 14:08:47;;;;;;;5.28;4.10;;;;;;;;;;5039323;28;20412;-84
2023/04/19 14:11:13;;;;;;;7.05;4.40;;;;;;;;;;5036815;28;20041;-84
2023/04/19 14:13:39;;;;;;;7.47;4.30;;;;;;;;;;5028555;28;20051;-81
2023/04/19 14:16:06;;;;;;;6.30;4.60;;;;;;;;;;5061274;28;20032;-83
2023/04/19 14:18:32;;;;;;;4.93;4.43;;;;;;;;;;5069429;28;20044;-86
2023/04/19 14:20:58;;;;;;;5.80;4.40;;;;;;;;;;5032437;28;20458;-84
2023/04/19 14:23:24;;;;;;;6.07;4.60;;;;;;;;;;5058657;28;20040;-84
2023/04/19 14:25:50;;;;;;;8.30;4.18;;;;;;;;;;5036344;28;20495;-88
2023/04/19 14:28:16;;;;;;;5.13;4.18;;;;;;;;;;5059112;28;20044;-82
2023/04/19 14:30:42;;;;;;;6.68;4.10;;;;;;;;;;5059804;28;20049;-85
2023/04/19 14:33:08;;;;;;;5.65;3.72;;;;;;;;;;5042704;28;20037;-82
2023/04/19 14:35:34;;;;;;;5.50;4.82;;;;;;;;;;5055513;28;20496;-83